sensor_id;sensor_type;location;lat;lon;timestamp;P1;durP1;ratioP1;P2;durP2;ratioP2
60018;SDS011;45870;42.528;26.740;2023-01-06T00:01:53;6.55;;;4.03;;
60018;SDS011;45870;42.528;26.740;2023-01-06T00:04:19;13.75;;;2.97;;
60018;SDS011;45870;42.528;26.740;2023-01-06T00:06:45;6.43;;;2.35;;
60018;SDS011;45870;42.528;26.740;2023-01-06T00:09:10;3.38;;;1.88;;
60018;SDS011;45870;42.528;26.740;2023-01-06T00:11:36;4.82;;;3.03;;
60018;SDS011;45870;42.528;26.740;2023-01-06T00:14:02;4.20;;;1.95;;
60018;SDS011;45870;42.528;26.740;2023-01-06T00:16:28;5.22;;;3.22;;
60018;SDS011;45870;42.528;26.740;2023-01-06T00:18:56;4.97;;;3.75;;
60018;SDS011;45870;42.528;26.740;2023-01-06T00:21:23;5.18;;;1.90;;
60018;SDS011;45870;42.528;26.740;2023-01-06T00:23:48;5.30;;;2.83;;
60018;SDS011;45870;42.528;26.740;2023-01-06T00:26:14;7.18;;;2.97;;
60018;SDS011;45870;42.528;26.740;2023-01-06T00:28:40;5.57;;;2.83;;
60018;SDS011;45870;42.528;26.740;2023-01-06T00:31:07;3.38;;;3.03;;
60018;SDS011;45870;42.528;26.740;2023-01-06T00:33:34;7.13;;;2.13;;
60018;SDS011;45870;42.528;26.740;2023-01-06T00:36:00;4.22;;;3.05;;
60018;SDS011;45870;42.528;26.740;2023-01-06T00:38:27;6.68;;;2.05;;
60018;SDS011;45870;42.528;26.740;2023-01-06T00:40:53;3.75;;;2.78;;
60018;SDS011;45870;42.528;26.740;2023-01-06T00:43:18;3.38;;;1.95;;
60018;SDS011;45870;42.528;26.740;2023-01-06T00:45:44;4.32;;;2.42;;
60018;SDS011;45870;42.528;26.740;2023-01-06T00:48:10;3.33;;;2.35;;
60018;SDS011;45870;42.528;26.740;2023-01-06T00:50:36;6.32;;;3.95;;
60018;SDS011;45870;42.528;26.740;2023-01-06T00:53:02;6.75;;;3.20;;
60018;SDS011;45870;42.528;26.740;2023-01-06T00:55:27;4.10;;;2.38;;
60018;SDS011;45870;42.528;26.740;2023-01-06T00:57:54;6.28;;;3.03;;
60018;SDS011;45870;42.528;26.740;2023-01-06T01:00:19;7.88;;;3.70;;
60018;SDS011;45870;42.528;26.740;2023-01-06T01:02:46;4.10;;;2.83;;
60018;SDS011;45870;42.528;26.740;2023-01-06T01:05:12;3.78;;;2.58;;
60018;SDS011;45870;42.528;26.740;2023-01-06T01:07:38;5.32;;;3.05;;
60018;SDS011;45870;42.528;26.740;2023-01-06T01:10:05;8.57;;;2.42;;
60018;SDS011;45870;42.528;26.740;2023-01-06T01:12:31;6.95;;;3.05;;
60018;SDS011;45870;42.528;26.740;2023-01-06T01:14:57;8.52;;;3.25;;
60018;SDS011;45870;42.528;26.740;2023-01-06T01:17:25;6.57;;;2.58;;
60018;SDS011;45870;42.528;26.740;2023-01-06T01:19:53;7.40;;;2.20;;
60018;SDS011;45870;42.528;26.740;2023-01-06T01:22:22;7.72;;;2.92;;
60018;SDS011;45870;42.528;26.740;2023-01-06T01:24:50;2.78;;;1.95;;
60018;SDS011;45870;42.528;26.740;2023-01-06T01:27:16;3.55;;;2.50;;
60018;SDS011;45870;42.528;26.740;2023-01-06T01:29:42;3.55;;;2.35;;
60018;SDS011;45870;42.528;26.740;2023-01-06T01:32:08;6.10;;;3.08;;
60018;SDS011;45870;42.528;26.740;2023-01-06T01:34:34;7.20;;;2.65;;
60018;SDS011;45870;42.528;26.740;2023-01-06T01:37:00;6.78;;;3.88;;
60018;SDS011;45870;42.528;26.740;2023-01-06T01:39:26;4.80;;;2.88;;
60018;SDS011;45870;42.528;26.740;2023-01-06T01:41:54;5.10;;;2.90;;
60018;SDS011;45870;42.528;26.740;2023-01-06T01:47:26;5.13;;;2.92;;
60018;SDS011;45870;42.528;26.740;2023-01-06T01:52:51;7.55;;;2.60;;
60018;SDS011;45870;42.528;26.740;2023-01-06T01:55:20;7.13;;;2.63;;
60018;SDS011;45870;42.528;26.740;2023-01-06T01:57:49;4.97;;;3.35;;
60018;SDS011;45870;42.528;26.740;2023-01-06T02:00:19;8.65;;;3.25;;
60018;SDS011;45870;42.528;26.740;2023-01-06T02:02:44;8.05;;;3.05;;
60018;SDS011;45870;42.528;26.740;2023-01-06T02:05:15;2.58;;;2.13;;
60018;SDS011;45870;42.528;26.740;2023-01-06T02:07:44;3.92;;;2.40;;
60018;SDS011;45870;42.528;26.740;2023-01-06T02:10:12;7.30;;;2.92;;
60018;SDS011;45870;42.528;26.740;2023-01-06T02:12:44;3.20;;;2.00;;
60018;SDS011;45870;42.528;26.740;2023-01-06T02:29:33;4.65;;;2.80;;
60018;SDS011;45870;42.528;26.740;2023-01-06T02:40:24;4.75;;;2.55;;
60018;SDS011;45870;42.528;26.740;2023-01-06T02:43:13;3.60;;;2.17;;
60018;SDS011;45870;42.528;26.740;2023-01-06T02:45:48;3.38;;;2.30;;
60018;SDS011;45870;42.528;26.740;2023-01-06T02:51:06;5.72;;;2.80;;
60018;SDS011;45870;42.528;26.740;2023-01-06T02:56:25;5.93;;;3.38;;
60018;SDS011;45870;42.528;26.740;2023-01-06T03:04:08;4.00;;;2.33;;
60018;SDS011;45870;42.528;26.740;2023-01-06T03:06:38;4.70;;;2.35;;
60018;SDS011;45870;42.528;26.740;2023-01-06T03:09:09;2.92;;;2.20;;
60018;SDS011;45870;42.528;26.740;2023-01-06T03:11:38;3.83;;;2.35;;
60018;SDS011;45870;42.528;26.740;2023-01-06T03:14:12;3.42;;;1.13;;
60018;SDS011;45870;42.528;26.740;2023-01-06T03:16:46;4.43;;;2.58;;
60018;SDS011;45870;42.528;26.740;2023-01-06T03:19:12;2.42;;;1.15;;
60018;SDS011;45870;42.528;26.740;2023-01-06T03:21:40;1.55;;;1.38;;
60018;SDS011;45870;42.528;26.740;2023-01-06T03:24:08;5.00;;;1.50;;
60018;SDS011;45870;42.528;26.740;2023-01-06T03:26:35;6.65;;;2.15;;
60018;SDS011;45870;42.528;26.740;2023-01-06T03:29:04;3.72;;;1.83;;
60018;SDS011;45870;42.528;26.740;2023-01-06T03:31:39;3.85;;;1.95;;
60018;SDS011;45870;42.528;26.740;2023-01-06T03:34:25;2.95;;;1.38;;
60018;SDS011;45870;42.528;26.740;2023-01-06T03:42:37;3.20;;;1.30;;
60018;SDS011;45870;42.528;26.740;2023-01-06T03:53:59;2.47;;;1.50;;
60018;SDS011;45870;42.528;26.740;2023-01-06T03:56:31;4.47;;;1.80;;
60018;SDS011;45870;42.528;26.740;2023-01-06T03:59:05;3.33;;;2.35;;
60018;SDS011;45870;42.528;26.740;2023-01-06T04:01:36;3.17;;;1.27;;
60018;SDS011;45870;42.528;26.740;2023-01-06T04:04:03;1.85;;;1.40;;
60018;SDS011;45870;42.528;26.740;2023-01-06T04:06:29;3.58;;;1.60;;
60018;SDS011;45870;42.528;26.740;2023-01-06T04:08:54;3.80;;;1.58;;
60018;SDS011;45870;42.528;26.740;2023-01-06T04:11:20;2.60;;;1.35;;
60018;SDS011;45870;42.528;26.740;2023-01-06T04:14:04;1.85;;;0.90;;
60018;SDS011;45870;42.528;26.740;2023-01-06T04:16:30;2.25;;;1.73;;
60018;SDS011;45870;42.528;26.740;2023-01-06T04:18:55;2.45;;;1.50;;
60018;SDS011;45870;42.528;26.740;2023-01-06T04:21:21;1.63;;;0.68;;
60018;SDS011;45870;42.528;26.740;2023-01-06T04:23:47;2.15;;;0.98;;
60018;SDS011;45870;42.528;26.740;2023-01-06T04:26:12;3.00;;;0.90;;
60018;SDS011;45870;42.528;26.740;2023-01-06T04:28:38;1.75;;;0.50;;
60018;SDS011;45870;42.528;26.740;2023-01-06T04:31:04;0.57;;;0.30;;
60018;SDS011;45870;42.528;26.740;2023-01-06T04:33:30;0.80;;;0.70;;
60018;SDS011;45870;42.528;26.740;2023-01-06T04:35:55;1.50;;;0.65;;
60018;SDS011;45870;42.528;26.740;2023-01-06T04:38:21;1.00;;;0.70;;
60018;SDS011;45870;42.528;26.740;2023-01-06T04:40:48;1.30;;;0.45;;
60018;SDS011;45870;42.528;26.740;2023-01-06T04:43:14;0.90;;;0.55;;
60018;SDS011;45870;42.528;26.740;2023-01-06T04:45:43;0.60;;;0.40;;
60018;SDS011;45870;42.528;26.740;2023-01-06T04:48:12;0.00;;;0.00;;
60018;SDS011;45870;42.528;26.740;2023-01-06T04:50:38;0.52;;;0.17;;
60018;SDS011;45870;42.528;26.740;2023-01-06T04:53:05;1.02;;;0.45;;
60018;SDS011;45870;42.528;26.740;2023-01-06T04:55:31;0.80;;;0.73;;
60018;SDS011;45870;42.528;26.740;2023-01-06T04:57:57;0.28;;;0.15;;
60018;SDS011;45870;42.528;26.740;2023-01-06T05:00:23;0.43;;;0.30;;
60018;SDS011;45870;42.528;26.740;2023-01-06T05:02:49;1.10;;;0.80;;
60018;SDS011;45870;42.528;26.740;2023-01-06T05:05:15;0.22;;;0.10;;
60018;SDS011;45870;42.528;26.740;2023-01-06T05:07:41;1.20;;;0.20;;
60018;SDS011;45870;42.528;26.740;2023-01-06T05:10:07;0.77;;;0.40;;
60018;SDS011;45870;42.528;26.740;2023-01-06T05:12:34;1.55;;;0.60;;
60018;SDS011;45870;42.528;26.740;2023-01-06T05:15:00;1.30;;;0.35;;
60018;SDS011;45870;42.528;26.740;2023-01-06T05:17:26;0.30;;;0.20;;
60018;SDS011;45870;42.528;26.740;2023-01-06T05:19:52;0.20;;;0.10;;
60018;SDS011;45870;42.528;26.740;2023-01-06T05:22:18;0.15;;;0.10;;
60018;SDS011;45870;42.528;26.740;2023-01-06T05:24:44;0.30;;;0.20;;
60018;SDS011;45870;42.528;26.740;2023-01-06T05:27:09;2.42;;;0.30;;
60018;SDS011;45870;42.528;26.740;2023-01-06T05:29:35;0.28;;;0.20;;
60018;SDS011;45870;42.528;26.740;2023-01-06T05:32:01;0.22;;;0.20;;
60018;SDS011;45870;42.528;26.740;2023-01-06T05:34:28;1.08;;;0.63;;
60018;SDS011;45870;42.528;26.740;2023-01-06T05:36:54;0.57;;;0.20;;
60018;SDS011;45870;42.528;26.740;2023-01-06T05:39:20;0.88;;;0.20;;
60018;SDS011;45870;42.528;26.740;2023-01-06T05:41:46;1.08;;;0.25;;
60018;SDS011;45870;42.528;26.740;2023-01-06T05:44:11;0.25;;;0.22;;
60018;SDS011;45870;42.528;26.740;2023-01-06T05:46:37;0.20;;;0.10;;
60018;SDS011;45870;42.528;26.740;2023-01-06T05:49:03;0.20;;;0.20;;
60018;SDS011;45870;42.528;26.740;2023-01-06T05:51:28;0.43;;;0.22;;
60018;SDS011;45870;42.528;26.740;2023-01-06T05:53:54;0.40;;;0.25;;
60018;SDS011;45870;42.528;26.740;2023-01-06T05:56:21;0.55;;;0.20;;
60018;SDS011;45870;42.528;26.740;2023-01-06T05:58:48;0.52;;;0.30;;
60018;SDS011;45870;42.528;26.740;2023-01-06T06:01:23;0.82;;;0.10;;
60018;SDS011;45870;42.528;26.740;2023-01-06T06:03:51;0.00;;;0.00;;
60018;SDS011;45870;42.528;26.740;2023-01-06T06:06:18;0.30;;;0.20;;
60018;SDS011;45870;42.528;26.740;2023-01-06T06:08:45;0.10;;;0.10;;
60018;SDS011;45870;42.528;26.740;2023-01-06T06:11:12;0.57;;;0.50;;
60018;SDS011;45870;42.528;26.740;2023-01-06T06:13:46;0.20;;;0.20;;
60018;SDS011;45870;42.528;26.740;2023-01-06T06:16:14;0.25;;;0.20;;
60018;SDS011;45870;42.528;26.740;2023-01-06T06:18:41;0.17;;;0.13;;
60018;SDS011;45870;42.528;26.740;2023-01-06T06:21:09;0.40;;;0.20;;
60018;SDS011;45870;42.528;26.740;2023-01-06T06:23:37;0.55;;;0.30;;
60018;SDS011;45870;42.528;26.740;2023-01-06T06:26:03;0.55;;;0.28;;
60018;SDS011;45870;42.528;26.740;2023-01-06T06:28:30;1.02;;;0.40;;
60018;SDS011;45870;42.528;26.740;2023-01-06T06:31:07;0.95;;;0.30;;
60018;SDS011;45870;42.528;26.740;2023-01-06T06:33:34;0.43;;;0.40;;
60018;SDS011;45870;42.528;26.740;2023-01-06T06:36:00;0.82;;;0.40;;
60018;SDS011;45870;42.528;26.740;2023-01-06T06:38:26;1.30;;;0.35;;
60018;SDS011;45870;42.528;26.740;2023-01-06T06:40:52;0.80;;;0.30;;
60018;SDS011;45870;42.528;26.740;2023-01-06T06:43:18;0.60;;;0.43;;
60018;SDS011;45870;42.528;26.740;2023-01-06T06:45:45;0.65;;;0.15;;
60018;SDS011;45870;42.528;26.740;2023-01-06T06:48:12;0.82;;;0.30;;
60018;SDS011;45870;42.528;26.740;2023-01-06T06:50:38;0.28;;;0.28;;
60018;SDS011;45870;42.528;26.740;2023-01-06T06:53:04;0.50;;;0.30;;
60018;SDS011;45870;42.528;26.740;2023-01-06T06:55:31;0.93;;;0.30;;
60018;SDS011;45870;42.528;26.740;2023-01-06T06:57:57;0.20;;;0.13;;
60018;SDS011;45870;42.528;26.740;2023-01-06T07:00:23;0.80;;;0.38;;
60018;SDS011;45870;42.528;26.740;2023-01-06T07:02:50;0.47;;;0.13;;
60018;SDS011;45870;42.528;26.740;2023-01-06T07:05:16;0.17;;;0.10;;
60018;SDS011;45870;42.528;26.740;2023-01-06T07:07:42;0.57;;;0.30;;
60018;SDS011;45870;42.528;26.740;2023-01-06T07:10:15;0.45;;;0.35;;
60018;SDS011;45870;42.528;26.740;2023-01-06T07:12:41;0.30;;;0.22;;
60018;SDS011;45870;42.528;26.740;2023-01-06T07:15:07;0.05;;;0.05;;
60018;SDS011;45870;42.528;26.740;2023-01-06T07:17:33;1.42;;;0.65;;
60018;SDS011;45870;42.528;26.740;2023-01-06T07:19:59;0.00;;;0.00;;
60018;SDS011;45870;42.528;26.740;2023-01-06T07:22:25;1.15;;;0.40;;
60018;SDS011;45870;42.528;26.740;2023-01-06T07:24:50;1.30;;;0.47;;
60018;SDS011;45870;42.528;26.740;2023-01-06T07:27:16;0.30;;;0.30;;
60018;SDS011;45870;42.528;26.740;2023-01-06T07:29:42;0.43;;;0.30;;
60018;SDS011;45870;42.528;26.740;2023-01-06T07:32:07;1.25;;;0.73;;
60018;SDS011;45870;42.528;26.740;2023-01-06T07:34:34;0.85;;;0.45;;
60018;SDS011;45870;42.528;26.740;2023-01-06T07:36:59;0.28;;;0.20;;
60018;SDS011;45870;42.528;26.740;2023-01-06T07:39:25;0.47;;;0.30;;
60018;SDS011;45870;42.528;26.740;2023-01-06T07:41:51;0.30;;;0.25;;
60018;SDS011;45870;42.528;26.740;2023-01-06T07:44:16;0.73;;;0.30;;
60018;SDS011;45870;42.528;26.740;2023-01-06T07:46:42;0.57;;;0.30;;
60018;SDS011;45870;42.528;26.740;2023-01-06T07:49:08;0.85;;;0.35;;
60018;SDS011;45870;42.528;26.740;2023-01-06T07:51:33;0.32;;;0.20;;
60018;SDS011;45870;42.528;26.740;2023-01-06T07:54:00;1.27;;;0.30;;
60018;SDS011;45870;42.528;26.740;2023-01-06T07:56:26;0.90;;;0.47;;
60018;SDS011;45870;42.528;26.740;2023-01-06T07:58:51;1.50;;;0.30;;
60018;SDS011;45870;42.528;26.740;2023-01-06T08:01:18;1.23;;;0.30;;
60018;SDS011;45870;42.528;26.740;2023-01-06T08:03:44;1.02;;;0.40;;
60018;SDS011;45870;42.528;26.740;2023-01-06T08:06:10;0.52;;;0.38;;
60018;SDS011;45870;42.528;26.740;2023-01-06T08:08:37;0.47;;;0.15;;
60018;SDS011;45870;42.528;26.740;2023-01-06T08:11:08;0.20;;;0.20;;
60018;SDS011;45870;42.528;26.740;2023-01-06T08:13:36;0.30;;;0.22;;
60018;SDS011;45870;42.528;26.740;2023-01-06T08:16:05;0.20;;;0.20;;
60018;SDS011;45870;42.528;26.740;2023-01-06T08:18:32;0.43;;;0.30;;
60018;SDS011;45870;42.528;26.740;2023-01-06T08:21:00;1.33;;;0.47;;
60018;SDS011;45870;42.528;26.740;2023-01-06T08:23:28;0.30;;;0.30;;
60018;SDS011;45870;42.528;26.740;2023-01-06T08:26:08;0.20;;;0.20;;
60018;SDS011;45870;42.528;26.740;2023-01-06T08:28:37;0.43;;;0.32;;
60018;SDS011;45870;42.528;26.740;2023-01-06T08:31:07;0.25;;;0.10;;
60018;SDS011;45870;42.528;26.740;2023-01-06T08:33:34;0.57;;;0.40;;
60018;SDS011;45870;42.528;26.740;2023-01-06T08:36:01;0.15;;;0.15;;
60018;SDS011;45870;42.528;26.740;2023-01-06T08:38:30;0.30;;;0.30;;
60018;SDS011;45870;42.528;26.740;2023-01-06T08:40:57;0.47;;;0.20;;
60018;SDS011;45870;42.528;26.740;2023-01-06T08:43:24;0.55;;;0.38;;
60018;SDS011;45870;42.528;26.740;2023-01-06T08:45:51;0.57;;;0.28;;
60018;SDS011;45870;42.528;26.740;2023-01-06T08:48:18;1.60;;;0.20;;
60018;SDS011;45870;42.528;26.740;2023-01-06T08:50:44;0.32;;;0.20;;
60018;SDS011;45870;42.528;26.740;2023-01-06T08:53:10;0.20;;;0.20;;
60018;SDS011;45870;42.528;26.740;2023-01-06T08:55:37;1.05;;;0.30;;
60018;SDS011;45870;42.528;26.740;2023-01-06T08:58:04;0.40;;;0.30;;
60018;SDS011;45870;42.528;26.740;2023-01-06T09:00:30;0.28;;;0.25;;
60018;SDS011;45870;42.528;26.740;2023-01-06T09:02:56;0.98;;;0.35;;
60018;SDS011;45870;42.528;26.740;2023-01-06T09:05:22;0.57;;;0.20;;
60018;SDS011;45870;42.528;26.740;2023-01-06T09:07:48;0.57;;;0.57;;
60018;SDS011;45870;42.528;26.740;2023-01-06T09:10:19;1.10;;;0.17;;
60018;SDS011;45870;42.528;26.740;2023-01-06T09:12:46;0.22;;;0.22;;
60018;SDS011;45870;42.528;26.740;2023-01-06T09:15:13;1.05;;;0.30;;
60018;SDS011;45870;42.528;26.740;2023-01-06T09:17:39;1.00;;;0.73;;
60018;SDS011;45870;42.528;26.740;2023-01-06T09:20:05;0.35;;;0.10;;
60018;SDS011;45870;42.528;26.740;2023-01-06T09:22:31;0.25;;;0.20;;
60018;SDS011;45870;42.528;26.740;2023-01-06T09:24:57;0.73;;;0.30;;
60018;SDS011;45870;42.528;26.740;2023-01-06T09:27:22;0.77;;;0.20;;
60018;SDS011;45870;42.528;26.740;2023-01-06T09:29:48;0.73;;;0.30;;
60018;SDS011;45870;42.528;26.740;2023-01-06T09:32:14;0.22;;;0.15;;
60018;SDS011;45870;42.528;26.740;2023-01-06T09:34:40;0.40;;;0.20;;
60018;SDS011;45870;42.528;26.740;2023-01-06T09:37:06;0.28;;;0.20;;
60018;SDS011;45870;42.528;26.740;2023-01-06T09:39:31;4.28;;;0.17;;
60018;SDS011;45870;42.528;26.740;2023-01-06T09:42:01;0.63;;;0.38;;
60018;SDS011;45870;42.528;26.740;2023-01-06T09:44:57;1.00;;;0.40;;
60018;SDS011;45870;42.528;26.740;2023-01-06T09:47:34;1.02;;;0.20;;
60018;SDS011;45870;42.528;26.740;2023-01-06T09:50:06;1.00;;;0.43;;
60018;SDS011;45870;42.528;26.740;2023-01-06T09:52:45;0.32;;;0.20;;
60018;SDS011;45870;42.528;26.740;2023-01-06T09:55:18;0.85;;;0.30;;
60018;SDS011;45870;42.528;26.740;2023-01-06T09:57:59;0.55;;;0.30;;
60018;SDS011;45870;42.528;26.740;2023-01-06T10:00:49;3.03;;;0.90;;
60018;SDS011;45870;42.528;26.740;2023-01-06T10:03:21;0.20;;;0.10;;
60018;SDS011;45870;42.528;26.740;2023-01-06T10:17:00;0.63;;;0.25;;
60018;SDS011;45870;42.528;26.740;2023-01-06T10:25:13;0.95;;;0.30;;
60018;SDS011;45870;42.528;26.740;2023-01-06T10:27:53;0.43;;;0.20;;
60018;SDS011;45870;42.528;26.740;2023-01-06T10:30:42;0.00;;;0.00;;
60018;SDS011;45870;42.528;26.740;2023-01-06T10:33:25;0.85;;;0.45;;
60018;SDS011;45870;42.528;26.740;2023-01-06T10:35:54;0.65;;;0.22;;
60018;SDS011;45870;42.528;26.740;2023-01-06T10:38:23;0.68;;;0.20;;
60018;SDS011;45870;42.528;26.740;2023-01-06T10:43:56;0.40;;;0.20;;
60018;SDS011;45870;42.528;26.740;2023-01-06T10:46:22;0.30;;;0.15;;
60018;SDS011;45870;42.528;26.740;2023-01-06T10:48:56;0.10;;;0.10;;
60018;SDS011;45870;42.528;26.740;2023-01-06T10:53:58;0.05;;;0.05;;
60018;SDS011;45870;42.528;26.740;2023-01-06T10:56:28;0.88;;;0.35;;
60018;SDS011;45870;42.528;26.740;2023-01-06T10:59:00;1.33;;;0.30;;
60018;SDS011;45870;42.528;26.740;2023-01-06T11:01:30;0.50;;;0.30;;
60018;SDS011;45870;42.528;26.740;2023-01-06T11:06:51;0.50;;;0.22;;
60018;SDS011;45870;42.528;26.740;2023-01-06T11:12:21;0.47;;;0.20;;
60018;SDS011;45870;42.528;26.740;2023-01-06T11:15:01;0.20;;;0.15;;
60018;SDS011;45870;42.528;26.740;2023-01-06T11:17:29;0.90;;;0.30;;
60018;SDS011;45870;42.528;26.740;2023-01-06T11:22:34;0.20;;;0.20;;
60018;SDS011;45870;42.528;26.740;2023-01-06T11:25:03;0.20;;;0.20;;
60018;SDS011;45870;42.528;26.740;2023-01-06T11:36:22;1.85;;;0.30;;
60018;SDS011;45870;42.528;26.740;2023-01-06T11:41:21;1.10;;;0.30;;
60018;SDS011;45870;42.528;26.740;2023-01-06T11:43:52;0.50;;;0.15;;
60018;SDS011;45870;42.528;26.740;2023-01-06T11:46:20;0.65;;;0.32;;
60018;SDS011;45870;42.528;26.740;2023-01-06T11:48:54;0.60;;;0.38;;
60018;SDS011;45870;42.528;26.740;2023-01-06T11:51:30;0.10;;;0.10;;
60018;SDS011;45870;42.528;26.740;2023-01-06T11:57:18;0.30;;;0.30;;
60018;SDS011;45870;42.528;26.740;2023-01-06T12:02:28;0.10;;;0.10;;
60018;SDS011;45870;42.528;26.740;2023-01-06T12:05:02;0.05;;;0.05;;
60018;SDS011;45870;42.528;26.740;2023-01-06T12:07:45;0.47;;;0.20;;
60018;SDS011;45870;42.528;26.740;2023-01-06T12:10:20;0.10;;;0.10;;
60018;SDS011;45870;42.528;26.740;2023-01-06T12:12:49;0.50;;;0.22;;
60018;SDS011;45870;42.528;26.740;2023-01-06T12:15:16;0.32;;;0.20;;
60018;SDS011;45870;42.528;26.740;2023-01-06T12:17:48;0.40;;;0.20;;
60018;SDS011;45870;42.528;26.740;2023-01-06T12:20:26;0.55;;;0.25;;
60018;SDS011;45870;42.528;26.740;2023-01-06T12:22:59;1.48;;;0.30;;
60018;SDS011;45870;42.528;26.740;2023-01-06T12:25:38;0.65;;;0.30;;
60018;SDS011;45870;42.528;26.740;2023-01-06T12:33:25;0.55;;;0.22;;
60018;SDS011;45870;42.528;26.740;2023-01-06T12:36:01;4.57;;;0.75;;
60018;SDS011;45870;42.528;26.740;2023-01-06T12:41:12;0.47;;;0.20;;
60018;SDS011;45870;42.528;26.740;2023-01-06T12:43:47;0.65;;;0.20;;
60018;SDS011;45870;42.528;26.740;2023-01-06T12:46:28;0.77;;;0.20;;
60018;SDS011;45870;42.528;26.740;2023-01-06T12:49:02;0.57;;;0.30;;
60018;SDS011;45870;42.528;26.740;2023-01-06T12:51:37;0.70;;;0.25;;
60018;SDS011;45870;42.528;26.740;2023-01-06T13:04:57;0.05;;;0.00;;
60018;SDS011;45870;42.528;26.740;2023-01-06T13:15:43;0.20;;;0.20;;
60018;SDS011;45870;42.528;26.740;2023-01-06T13:23:34;0.22;;;0.10;;
60018;SDS011;45870;42.528;26.740;2023-01-06T13:26:35;0.52;;;0.20;;
60018;SDS011;45870;42.528;26.740;2023-01-06T13:40:30;0.38;;;0.20;;
60018;SDS011;45870;42.528;26.740;2023-01-06T13:43:13;0.30;;;0.20;;
60018;SDS011;45870;42.528;26.740;2023-01-06T13:45:45;0.43;;;0.20;;
60018;SDS011;45870;42.528;26.740;2023-01-06T13:48:16;0.45;;;0.20;;
60018;SDS011;45870;42.528;26.740;2023-01-06T13:50:45;0.65;;;0.30;;
60018;SDS011;45870;42.528;26.740;2023-01-06T13:53:16;0.22;;;0.17;;
60018;SDS011;45870;42.528;26.740;2023-01-06T13:55:46;0.10;;;0.10;;
60018;SDS011;45870;42.528;26.740;2023-01-06T14:03:39;0.30;;;0.30;;
60018;SDS011;45870;42.528;26.740;2023-01-06T14:06:41;0.35;;;0.25;;
60018;SDS011;45870;42.528;26.740;2023-01-06T14:09:03;0.30;;;0.10;;
60018;SDS011;45870;42.528;26.740;2023-01-06T14:11:33;1.40;;;0.47;;
60018;SDS011;45870;42.528;26.740;2023-01-06T14:14:06;13.02;;;3.97;;
60018;SDS011;45870;42.528;26.740;2023-01-06T14:16:49;3.15;;;1.52;;
60018;SDS011;45870;42.528;26.740;2023-01-06T14:19:17;1.40;;;0.70;;
60018;SDS011;45870;42.528;26.740;2023-01-06T14:21:54;0.45;;;0.20;;
60018;SDS011;45870;42.528;26.740;2023-01-06T14:24:40;0.45;;;0.20;;
60018;SDS011;45870;42.528;26.740;2023-01-06T14:27:12;0.43;;;0.30;;
60018;SDS011;45870;42.528;26.740;2023-01-06T14:35:09;0.00;;;0.00;;
60018;SDS011;45870;42.528;26.740;2023-01-06T14:37:40;0.20;;;0.10;;
60018;SDS011;45870;42.528;26.740;2023-01-06T14:40:18;0.10;;;0.10;;
60018;SDS011;45870;42.528;26.740;2023-01-06T14:42:50;1.75;;;1.25;;
60018;SDS011;45870;42.528;26.740;2023-01-06T14:45:22;2.35;;;0.35;;
60018;SDS011;45870;42.528;26.740;2023-01-06T14:47:51;0.52;;;0.20;;
60018;SDS011;45870;42.528;26.740;2023-01-06T14:50:29;0.30;;;0.10;;
60018;SDS011;45870;42.528;26.740;2023-01-06T14:55:47;0.50;;;0.28;;
60018;SDS011;45870;42.528;26.740;2023-01-06T14:58:28;1.50;;;0.40;;
60018;SDS011;45870;42.528;26.740;2023-01-06T15:01:01;0.68;;;0.40;;
60018;SDS011;45870;42.528;26.740;2023-01-06T15:03:28;3.03;;;0.20;;
60018;SDS011;45870;42.528;26.740;2023-01-06T15:06:15;0.30;;;0.30;;
60018;SDS011;45870;42.528;26.740;2023-01-06T15:08:43;0.20;;;0.20;;
60018;SDS011;45870;42.528;26.740;2023-01-06T15:13:54;1.58;;;0.57;;
60018;SDS011;45870;42.528;26.740;2023-01-06T15:19:08;1.40;;;0.60;;
60018;SDS011;45870;42.528;26.740;2023-01-06T15:21:39;0.60;;;0.30;;
60018;SDS011;45870;42.528;26.740;2023-01-06T15:26:48;0.20;;;0.20;;
60018;SDS011;45870;42.528;26.740;2023-01-06T15:29:16;0.60;;;0.40;;
60018;SDS011;45870;42.528;26.740;2023-01-06T15:31:44;0.55;;;0.40;;
60018;SDS011;45870;42.528;26.740;2023-01-06T15:34:22;0.22;;;0.17;;
60018;SDS011;45870;42.528;26.740;2023-01-06T15:36:54;0.10;;;0.10;;
60018;SDS011;45870;42.528;26.740;2023-01-06T15:39:23;0.52;;;0.10;;
60018;SDS011;45870;42.528;26.740;2023-01-06T15:41:51;1.02;;;0.25;;
60018;SDS011;45870;42.528;26.740;2023-01-06T15:44:24;0.85;;;0.20;;
60018;SDS011;45870;42.528;26.740;2023-01-06T15:49:40;0.30;;;0.20;;
60018;SDS011;45870;42.528;26.740;2023-01-06T15:52:23;0.75;;;0.30;;
60018;SDS011;45870;42.528;26.740;2023-01-06T15:54:53;0.45;;;0.30;;
60018;SDS011;45870;42.528;26.740;2023-01-06T15:57:22;0.52;;;0.20;;
60018;SDS011;45870;42.528;26.740;2023-01-06T15:59:51;0.20;;;0.20;;
60018;SDS011;45870;42.528;26.740;2023-01-06T16:02:24;0.45;;;0.20;;
60018;SDS011;45870;42.528;26.740;2023-01-06T16:04:53;0.32;;;0.22;;
60018;SDS011;45870;42.528;26.740;2023-01-06T16:07:39;0.22;;;0.22;;
60018;SDS011;45870;42.528;26.740;2023-01-06T16:10:29;0.93;;;0.63;;
60018;SDS011;45870;42.528;26.740;2023-01-06T16:15:48;0.40;;;0.20;;
60018;SDS011;45870;42.528;26.740;2023-01-06T16:18:28;12.88;;;0.43;;
60018;SDS011;45870;42.528;26.740;2023-01-06T16:20:56;0.10;;;0.10;;
60018;SDS011;45870;42.528;26.740;2023-01-06T16:23:33;0.55;;;0.25;;
60018;SDS011;45870;42.528;26.740;2023-01-06T16:26:08;0.85;;;0.45;;
60018;SDS011;45870;42.528;26.740;2023-01-06T16:28:35;0.68;;;0.15;;
60018;SDS011;45870;42.528;26.740;2023-01-06T16:31:07;1.27;;;0.43;;
60018;SDS011;45870;42.528;26.740;2023-01-06T16:33:41;1.45;;;0.40;;
60018;SDS011;45870;42.528;26.740;2023-01-06T16:36:11;0.20;;;0.20;;
60018;SDS011;45870;42.528;26.740;2023-01-06T16:38:40;1.33;;;1.00;;
60018;SDS011;45870;42.528;26.740;2023-01-06T16:41:06;0.65;;;0.30;;
60018;SDS011;45870;42.528;26.740;2023-01-06T16:43:39;1.05;;;0.60;;
60018;SDS011;45870;42.528;26.740;2023-01-06T16:46:09;0.60;;;0.30;;
60018;SDS011;45870;42.528;26.740;2023-01-06T16:48:49;1.00;;;0.25;;
60018;SDS011;45870;42.528;26.740;2023-01-06T16:51:16;1.02;;;0.60;;
60018;SDS011;45870;42.528;26.740;2023-01-06T16:53:42;0.88;;;0.52;;
60018;SDS011;45870;42.528;26.740;2023-01-06T16:56:16;0.00;;;0.00;;
60018;SDS011;45870;42.528;26.740;2023-01-06T16:58:47;0.63;;;0.57;;
60018;SDS011;45870;42.528;26.740;2023-01-06T17:01:17;1.10;;;0.30;;
60018;SDS011;45870;42.528;26.740;2023-01-06T17:03:50;0.52;;;0.30;;
60018;SDS011;45870;42.528;26.740;2023-01-06T17:06:21;0.70;;;0.10;;
60018;SDS011;45870;42.528;26.740;2023-01-06T17:08:50;0.85;;;0.40;;
60018;SDS011;45870;42.528;26.740;2023-01-06T17:11:24;0.20;;;0.20;;
60018;SDS011;45870;42.528;26.740;2023-01-06T17:14:01;0.80;;;0.30;;
60018;SDS011;45870;42.528;26.740;2023-01-06T17:16:35;0.38;;;0.30;;
60018;SDS011;45870;42.528;26.740;2023-01-06T17:19:17;4.28;;;0.70;;
60018;SDS011;45870;42.528;26.740;2023-01-06T17:21:52;3.75;;;0.35;;
60018;SDS011;45870;42.528;26.740;2023-01-06T17:24:24;0.93;;;0.47;;
60018;SDS011;45870;42.528;26.740;2023-01-06T17:29:54;3.97;;;1.00;;
60018;SDS011;45870;42.528;26.740;2023-01-06T17:34:50;0.13;;;0.13;;
60018;SDS011;45870;42.528;26.740;2023-01-06T17:37:23;0.10;;;0.10;;
60018;SDS011;45870;42.528;26.740;2023-01-06T17:39:52;0.13;;;0.13;;
60018;SDS011;45870;42.528;26.740;2023-01-06T17:42:30;1.02;;;0.22;;
60018;SDS011;45870;42.528;26.740;2023-01-06T17:45:00;0.40;;;0.40;;
60018;SDS011;45870;42.528;26.740;2023-01-06T17:47:28;0.95;;;0.60;;